Time;durP1;ratioP1;P1;durP2;ratioP2;P2;SDS_P1;SDS_P2;PMS_P1;PMS_P2;Temp;Humidity;BMP_temperature;BMP_pressure;BME280_temperature;BME280_humidity;BME280_pressure;Samples;Min_cycle;Max_cycle;Signal;HPM_P1;HPM_P2
2022/09/07 00:00:42;;;;;;;9.83;9.03;;;20.30;99.90;;;;;;6204366;28;20225;-63
2022/09/07 00:03:47;;;;;;;9.40;8.60;;;20.30;99.90;;;;;;6205173;28;20222;-63
2022/09/07 00:06:50;;;;;;;9.50;8.80;;;20.30;99.90;;;;;;6201610;28;20236;-63
2022/09/07 00:09:53;;;;;;;11.13;10.07;;;20.30;99.90;;;;;;6204152;28;20240;-62
2022/09/07 00:12:56;;;;;;;9.97;9.17;;;20.20;99.90;;;;;;6207334;28;20229;-62
2022/09/07 00:16:03;;;;;;;10.87;9.80;;;20.20;99.90;;;;;;6205977;28;20244;-62
2022/09/07 00:19:07;;;;;;;9.23;8.53;;;20.20;99.90;;;;;;6205108;28;20233;-62
2022/09/07 00:22:11;;;;;;;9.20;8.50;;;20.10;99.90;;;;;;6205432;28;20230;-62
2022/09/07 00:25:14;;;;;;;9.97;9.17;;;20.10;99.90;;;;;;6204870;28;20229;-62
2022/09/07 00:28:17;;;;;;;10.37;9.57;;;20.10;99.90;;;;;;6205649;28;20240;-63
2022/09/07 00:31:22;;;;;;;10.77;9.90;;;20.10;99.90;;;;;;6207063;28;20226;-62
2022/09/07 00:34:27;;;;;;;11.23;10.33;;;20.10;99.90;;;;;;6206770;28;20229;-63
2022/09/07 00:37:30;;;;;;;11.17;10.27;;;20.10;99.90;;;;;;6205763;28;20237;-62
2022/09/07 00:40:33;;;;;;;11.70;10.80;;;20.10;99.90;;;;;;6205777;28;20252;-62
2022/09/07 00:43:39;;;;;;;11.30;10.10;;;20.10;99.90;;;;;;6204942;28;20234;-63
2022/09/07 00:46:43;;;;;;;10.10;9.20;;;20.00;99.90;;;;;;6205502;28;20669;-62
2022/09/07 00:49:52;;;;;;;9.87;9.07;;;19.90;99.90;;;;;;6205242;28;20548;-63
2022/09/07 00:52:59;;;;;;;10.17;9.27;;;19.90;99.90;;;;;;6205840;28;20247;-63
2022/09/07 00:56:04;;;;;;;11.07;9.93;;;19.90;99.90;;;;;;6204734;28;20239;-63
2022/09/07 00:59:08;;;;;;;11.90;10.80;;;19.90;99.90;;;;;;6204207;28;20226;-62
2022/09/07 01:02:15;;;;;;;12.37;11.27;;;19.80;99.90;;;;;;6204404;28;20233;-63
2022/09/07 01:05:24;;;;;;;10.73;9.63;;;19.80;99.90;;;;;;6204283;28;20277;-63
2022/09/07 01:08:29;;;;;;;11.00;10.10;;;19.80;99.90;;;;;;6203896;28;20225;-63
2022/09/07 01:11:34;;;;;;;11.10;10.00;;;19.90;99.90;;;;;;6203509;28;20261;-63
2022/09/07 01:14:42;;;;;;;11.70;10.70;;;19.80;99.90;;;;;;6203653;28;20555;-63
2022/09/07 01:17:57;;;;;;;11.40;10.33;;;19.80;99.90;;;;;;6204321;28;20229;-63
2022/09/07 01:21:25;;;;;;;12.87;11.63;;;19.80;99.90;;;;;;6204033;28;20240;-62
2022/09/07 01:24:45;;;;;;;11.70;10.70;;;19.80;99.90;;;;;;6207277;28;20222;-63
2022/09/07 01:28:08;;;;;;;11.73;10.70;;;19.70;99.90;;;;;;6207613;28;20225;-62
2022/09/07 01:31:21;;;;;;;11.53;10.40;;;19.70;99.90;;;;;;6207036;28;20249;-62
2022/09/07 01:34:26;;;;;;;14.43;11.07;;;19.70;99.90;;;;;;6207577;28;20688;-62
2022/09/07 01:37:36;;;;;;;10.77;9.90;;;19.70;99.90;;;;;;6208003;28;20229;-62
2022/09/07 01:40:48;;;;;;;12.20;11.10;;;19.70;99.90;;;;;;6207059;28;20233;-62
2022/09/07 01:43:56;;;;;;;11.80;10.90;;;19.60;99.90;;;;;;6207482;28;20229;-62
2022/09/07 01:47:04;;;;;;;10.30;9.40;;;19.60;99.90;;;;;;6206860;28;20240;-62
2022/09/07 01:50:10;;;;;;;10.33;9.43;;;19.60;99.90;;;;;;6198420;28;20241;-62
2022/09/07 01:53:18;;;;;;;10.20;9.20;;;19.50;99.90;;;;;;6206693;28;20252;-62
2022/09/07 01:56:27;;;;;;;10.47;9.57;;;19.50;99.90;;;;;;6203393;28;20234;-64
2022/09/07 01:59:35;;;;;;;10.50;9.60;;;19.40;99.90;;;;;;6206636;28;20261;-63
2022/09/07 02:02:42;;;;;;;11.33;9.63;;;19.40;99.90;;;;;;6207033;28;20684;-63
2022/09/07 02:05:49;;;;;;;11.63;9.17;;;19.50;99.90;;;;;;6205524;28;20234;-63
2022/09/07 02:08:56;;;;;;;10.23;9.43;;;19.40;99.90;;;;;;6203394;28;20226;-63
2022/09/07 02:12:03;;;;;;;10.33;9.53;;;19.40;99.90;;;;;;6201954;28;20238;-62
2022/09/07 02:15:14;;;;;;;10.10;8.73;;;19.40;99.90;;;;;;6201884;28;20230;-62
2022/09/07 02:18:19;;;;;;;9.80;9.00;;;19.50;99.90;;;;;;6201777;28;20230;-63
2022/09/07 02:21:27;;;;;;;9.80;9.07;;;19.40;99.90;;;;;;6203852;28;20700;-63
2022/09/07 02:24:34;;;;;;;9.53;8.73;;;19.40;99.90;;;;;;6203280;28;20214;-63
2022/09/07 02:27:44;;;;;;;10.07;9.27;;;19.30;99.90;;;;;;6203561;28;20210;-63
2022/09/07 02:30:48;;;;;;;8.90;8.20;;;19.30;99.90;;;;;;6201847;28;20233;-63
2022/09/07 02:33:52;;;;;;;9.67;8.77;;;19.20;99.90;;;;;;6201536;28;20225;-63
2022/09/07 02:36:57;;;;;;;9.63;8.90;;;19.20;99.90;;;;;;6202469;28;20233;-63
2022/09/07 02:40:00;;;;;;;9.83;8.80;;;19.20;99.90;;;;;;6202497;28;20245;-62
2022/09/07 02:43:08;;;;;;;10.03;9.17;;;19.20;99.90;;;;;;6202854;28;20229;-63
2022/09/07 02:46:22;;;;;;;10.70;9.37;;;19.10;99.90;;;;;;6208280;28;20230;-63
2022/09/07 02:49:43;;;;;;;9.30;8.60;;;19.20;99.90;;;;;;6207537;28;20280;-62
2022/09/07 02:53:01;;;;;;;9.43;8.53;;;19.20;99.90;;;;;;6203030;28;20230;-63
2022/09/07 02:56:15;;;;;;;12.13;8.80;;;19.10;99.90;;;;;;6206983;28;20246;-63
2022/09/07 02:59:30;;;;;;;9.53;8.70;;;19.10;99.90;;;;;;6206973;28;20675;-62
2022/09/07 03:02:49;;;;;;;9.93;9.13;;;19.10;99.90;;;;;;6207142;28;20249;-63
2022/09/07 03:05:58;;;;;;;9.07;8.37;;;19.00;99.90;;;;;;6206486;28;20226;-63
2022/09/07 03:09:07;;;;;;;10.17;9.37;;;19.00;99.90;;;;;;6205862;28;20234;-62
2022/09/07 03:12:11;;;;;;;9.53;8.73;;;18.90;99.90;;;;;;6205378;28;20583;-63
2022/09/07 03:15:16;;;;;;;8.57;7.87;;;19.00;99.90;;;;;;6204662;28;20245;-63
2022/09/07 03:18:21;;;;;;;8.97;8.27;;;18.90;99.90;;;;;;6205105;28;20234;-63
2022/09/07 03:21:24;;;;;;;9.67;8.67;;;19.00;99.90;;;;;;6205246;28;20248;-63
2022/09/07 03:24:27;;;;;;;9.33;8.47;;;19.00;99.90;;;;;;6204306;28;20241;-63
2022/09/07 03:27:31;;;;;;;10.10;9.13;;;18.90;99.90;;;;;;6202924;28;20210;-63
2022/09/07 03:30:34;;;;;;;9.40;8.70;;;18.80;99.90;;;;;;6203178;28;20242;-63
2022/09/07 03:33:39;;;;;;;9.50;8.80;;;18.80;99.90;;;;;;6204933;28;20208;-63
2022/09/07 03:36:42;;;;;;;9.30;8.60;;;18.80;99.90;;;;;;6204592;28;20252;-63
2022/09/07 03:39:45;;;;;;;9.33;8.60;;;18.80;99.90;;;;;;6203037;28;20288;-63
2022/09/07 03:42:49;;;;;;;9.70;8.70;;;18.80;99.90;;;;;;6204407;28;20229;-64
2022/09/07 03:45:57;;;;;;;9.93;9.13;;;18.70;99.90;;;;;;6207943;28;20241;-63
2022/09/07 03:49:01;;;;;;;9.03;8.23;;;18.60;99.90;;;;;;6209277;28;20469;-63
2022/09/07 03:52:05;;;;;;;8.97;8.27;;;18.60;99.90;;;;;;6209892;28;20229;-63
2022/09/07 03:55:08;;;;;;;9.53;8.63;;;18.60;99.90;;;;;;6207549;28;20230;-63
2022/09/07 03:58:11;;;;;;;9.43;8.73;;;18.60;99.90;;;;;;6206283;28;20222;-63
2022/09/07 04:01:17;;;;;;;10.13;9.33;;;18.50;99.90;;;;;;6206380;28;20229;-63
2022/09/07 04:04:21;;;;;;;10.60;9.77;;;18.50;99.90;;;;;;6205925;28;20523;-63
2022/09/07 04:07:24;;;;;;;8.70;8.00;;;18.40;99.90;;;;;;6206717;28;20234;-63
2022/09/07 04:10:27;;;;;;;9.70;8.87;;;18.40;99.90;;;;;;6206345;28;20241;-63
2022/09/07 04:13:31;;;;;;;9.80;9.00;;;18.40;99.90;;;;;;6207397;28;20284;-63
2022/09/07 04:16:34;;;;;;;10.03;9.13;;;18.30;99.90;;;;;;6207914;28;20488;-63
2022/09/07 04:19:39;;;;;;;8.97;8.17;;;18.30;99.90;;;;;;6207522;28;20324;-63
2022/09/07 04:22:42;;;;;;;9.90;9.20;;;18.40;99.90;;;;;;6207752;28;20496;-63
2022/09/07 04:25:49;;;;;;;11.77;9.40;;;18.40;99.90;;;;;;6207549;28;20236;-63
2022/09/07 04:28:54;;;;;;;9.90;9.10;;;18.40;99.90;;;;;;6207247;28;20477;-63
2022/09/07 04:31:57;;;;;;;8.63;7.97;;;18.40;99.90;;;;;;6207311;28;20236;-63
2022/09/07 04:35:02;;;;;;;9.37;8.47;;;18.40;99.90;;;;;;6206953;28;20481;-63
2022/09/07 04:38:05;;;;;;;9.87;9.10;;;18.40;99.90;;;;;;6207177;28;20233;-63
2022/09/07 04:41:12;;;;;;;11.80;10.67;;;18.40;99.90;;;;;;6206873;28;20238;-64
2022/09/07 04:44:15;;;;;;;10.63;9.73;;;18.40;99.90;;;;;;6207240;28;20230;-64
2022/09/07 04:47:19;;;;;;;10.93;10.10;;;18.40;99.90;;;;;;6207065;28;20353;-64
2022/09/07 04:50:24;;;;;;;10.63;9.83;;;18.30;99.90;;;;;;6207304;28;20230;-64
2022/09/07 04:53:27;;;;;;;11.00;10.10;;;18.40;99.90;;;;;;6205177;28;20496;-64
2022/09/07 04:56:31;;;;;;;10.70;9.70;;;18.50;99.90;;;;;;6204648;28;20245;-62
2022/09/07 04:59:34;;;;;;;10.07;9.10;;;18.60;99.90;;;;;;6202617;28;20244;-62
2022/09/07 05:02:37;;;;;;;9.50;8.70;;;18.70;99.90;;;;;;6194211;28;20230;-62
2022/09/07 05:05:43;;;;;;;11.13;10.10;;;18.70;99.90;;;;;;6202755;28;20265;-61
2022/09/07 05:08:49;;;;;;;10.70;9.80;;;18.80;99.90;;;;;;6202484;28;20600;-61
2022/09/07 05:11:52;;;;;;;9.37;8.60;;;18.80;99.90;;;;;;6202299;28;20234;-61
2022/09/07 05:14:56;;;;;;;10.03;9.13;;;18.90;99.90;;;;;;6202699;28;20230;-61
2022/09/07 05:17:59;;;;;;;11.53;9.10;;;18.90;99.90;;;;;;6202421;28;20245;-63
2022/09/07 05:21:10;;;;;;;11.27;10.27;;;19.00;99.90;;;;;;6202437;28;20246;-61
2022/09/07 05:24:13;;;;;;;9.30;8.40;;;19.00;99.90;;;;;;6202379;28;20680;-61
2022/09/07 05:27:17;;;;;;;10.37;9.47;;;19.00;99.90;;;;;;6202333;28;20226;-61
2022/09/07 05:30:20;;;;;;;9.73;8.83;;;19.10;99.90;;;;;;6201965;28;20253;-61
2022/09/07 05:33:46;;;;;;;10.07;9.10;;;19.20;99.90;;;;;;6201871;28;20537;-61
2022/09/07 05:37:10;;;;;;;9.33;8.60;;;19.50;99.90;;;;;;6201778;28;20230;-61
2022/09/07 05:40:14;;;;;;;10.40;9.57;;;19.60;99.90;;;;;;6202189;28;20229;-61
2022/09/07 05:43:17;;;;;;;9.40;8.50;;;19.70;99.90;;;;;;6201793;28;20229;-61
2022/09/07 05:46:21;;;;;;;9.10;8.40;;;19.80;99.90;;;;;;6202021;28;20792;-62
2022/09/07 05:49:24;;;;;;;9.40;8.60;;;19.90;99.90;;;;;;6201753;28;20229;-62
2022/09/07 05:52:28;;;;;;;10.33;9.20;;;20.10;99.90;;;;;;6202002;28;20225;-62
2022/09/07 05:55:31;;;;;;;9.53;8.80;;;20.10;99.90;;;;;;6201559;28;20245;-62
2022/09/07 05:58:36;;;;;;;10.30;9.40;;;20.20;99.90;;;;;;6201583;28;20689;-62
2022/09/07 06:01:39;;;;;;;10.03;9.03;;;20.40;99.90;;;;;;6201469;28;20249;-62
2022/09/07 06:04:42;;;;;;;11.27;9.03;;;20.40;99.90;;;;;;6196930;28;20256;-61
2022/09/07 06:07:48;;;;;;;9.60;8.90;;;20.50;99.90;;;;;;6201053;28;20237;-62
2022/09/07 06:10:51;;;;;;;9.83;8.93;;;20.50;99.90;;;;;;6200900;28;20238;-61
2022/09/07 06:13:54;;;;;;;9.37;8.67;;;20.60;99.90;;;;;;6201176;28;20571;-62
2022/09/07 06:16:57;;;;;;;10.57;9.57;;;20.70;99.90;;;;;;6201113;28;20235;-62
2022/09/07 06:20:01;;;;;;;9.90;9.13;;;20.80;99.90;;;;;;6200698;28;20238;-62
2022/09/07 06:23:06;;;;;;;10.70;9.80;;;20.90;99.90;;;;;;6200927;28;20341;-62
2022/09/07 06:26:09;;;;;;;11.30;10.40;;;20.90;99.90;;;;;;6201467;28;20618;-62
2022/09/07 06:29:13;;;;;;;10.50;9.60;;;21.50;99.90;;;;;;6201111;28;20304;-62
2022/09/07 06:32:16;;;;;;;10.37;9.40;;;23.10;99.90;;;;;;6201437;28;20732;-62
2022/09/07 06:35:39;;;;;;;8.53;7.87;;;24.80;99.90;;;;;;6200962;28;20226;-62
2022/09/07 06:38:44;;;;;;;8.20;7.50;;;26.50;99.90;;;;;;6201090;28;20244;-62
2022/09/07 06:41:47;;;;;;;9.80;8.80;;;27.70;99.90;;;;;;6201043;28;20232;-62
2022/09/07 06:45:08;;;;;;;10.00;9.00;;;28.90;97.90;;;;;;6201212;28;20237;-62
2022/09/07 06:48:11;;;;;;;9.77;9.07;;;30.00;94.30;;;;;;6201079;28;20677;-62
2022/09/07 06:51:17;;;;;;;8.93;8.23;;;31.10;91.60;;;;;;6200738;28;20233;-64
2022/09/07 06:54:23;;;;;;;10.00;9.30;;;30.80;89.30;;;;;;6200997;28;20244;-63
2022/09/07 06:57:46;;;;;;;9.43;8.50;;;30.50;88.30;;;;;;6200514;28;20240;-63
2022/09/07 07:00:49;;;;;;;10.07;9.17;;;29.80;90.50;;;;;;6200365;28;20233;-63
2022/09/07 07:03:53;;;;;;;9.77;8.97;;;29.30;90.80;;;;;;6201117;28;20233;-63
2022/09/07 07:06:56;;;;;;;9.23;8.50;;;28.60;91.30;;;;;;6200914;28;20240;-63
2022/09/07 07:10:01;;;;;;;11.50;10.30;;;28.00;92.40;;;;;;6201031;28;20239;-63
2022/09/07 07:13:04;;;;;;;9.97;9.17;;;27.50;93.90;;;;;;6200406;28;20317;-62
2022/09/07 07:16:08;;;;;;;12.80;11.10;;;26.90;94.50;;;;;;6199263;28;20572;-62
2022/09/07 07:19:12;;;;;;;11.20;10.20;;;26.50;95.80;;;;;;6203391;28;20239;-63
2022/09/07 07:22:15;;;;;;;10.70;9.90;;;26.00;96.70;;;;;;6205405;28;20239;-63
2022/09/07 07:25:39;;;;;;;14.70;11.80;;;25.90;97.70;;;;;;6200485;28;20285;-63
2022/09/07 07:28:44;;;;;;;12.23;11.03;;;25.80;98.60;;;;;;6203748;28;20233;-63
2022/09/07 07:32:05;;;;;;;9.73;8.93;;;26.90;98.60;;;;;;6204517;28;20588;-63
2022/09/07 07:35:09;;;;;;;11.40;10.30;;;29.20;94.50;;;;;;6204726;28;20229;-63
2022/09/07 07:38:12;;;;;;;10.82;9.93;;;31.40;90.40;;;;;;6204037;28;20306;-62
2022/09/07 07:41:36;;;;;;;11.50;10.65;;;33.50;83.10;;;;;;6201706;28;20691;-63
2022/09/07 07:44:59;;;;;;;10.95;10.05;;;34.40;73.60;;;;;;6204804;28;20244;-63
2022/09/07 07:48:22;;;;;;;11.35;10.35;;;34.20;71.80;;;;;;6204468;28;20651;-63
2022/09/07 07:51:26;;;;;;;11.38;10.57;;;34.30;70.50;;;;;;6204563;28;20568;-62
2022/09/07 07:54:29;;;;;;;12.40;11.35;;;33.90;69.50;;;;;;6204826;28;20232;-62
2022/09/07 07:57:34;;;;;;;13.48;12.43;;;33.50;71.50;;;;;;6204214;28;20603;-62
2022/09/07 08:00:37;;;;;;;14.13;12.85;;;33.30;71.20;;;;;;6204731;28;20236;-63
2022/09/07 08:03:57;;;;;;;12.70;11.65;;;33.00;71.90;;;;;;6204387;28;20681;-63
2022/09/07 08:07:00;;;;;;;12.55;11.25;;;32.30;73.80;;;;;;6204739;28;20240;-63
2022/09/07 08:10:11;;;;;;;11.20;10.07;;;32.20;75.90;;;;;;6204341;28;20229;-64
2022/09/07 08:13:16;;;;;;;9.35;8.73;;;34.70;69.80;;;;;;6195367;28;20233;-63
2022/09/07 08:16:19;;;;;;;10.18;9.25;;;38.00;61.00;;;;;;6203849;28;20263;-63
2022/09/07 08:19:22;;;;;;;9.88;8.55;;;40.30;53.00;;;;;;6203534;28;20552;-63
2022/09/07 08:22:26;;;;;;;9.05;8.35;;;42.30;46.80;;;;;;6203654;28;20275;-63
2022/09/07 08:25:32;;;;;;;9.55;8.75;;;43.70;42.90;;;;;;6201783;28;20276;-66
2022/09/07 08:28:39;;;;;;;9.02;8.25;;;44.40;40.20;;;;;;6203432;28;20233;-66
2022/09/07 08:31:43;;;;;;;7.13;6.60;;;45.00;38.30;;;;;;6203025;28;20259;-66
2022/09/07 08:34:46;;;;;;;6.72;6.13;;;45.50;36.60;;;;;;6202809;28;20232;-65
2022/09/07 08:37:49;;;;;;;8.00;7.50;;;45.80;35.30;;;;;;6202705;28;20525;-65
2022/09/07 08:40:53;;;;;;;7.25;5.50;;;46.30;33.90;;;;;;6202640;28;20225;-64
2022/09/07 08:44:00;;;;;;;7.03;6.43;;;46.90;33.00;;;;;;6202799;28;20225;-64
2022/09/07 08:47:12;;;;;;;6.20;5.78;;;45.00;33.70;;;;;;6202756;28;20724;-64
2022/09/07 08:50:20;;;;;;;6.80;6.30;;;43.60;36.00;;;;;;6201435;28;20225;-64
2022/09/07 08:53:24;;;;;;;8.15;7.57;;;42.90;37.80;;;;;;6202621;28;20236;-65
2022/09/07 08:56:31;;;;;;;10.82;7.03;;;44.10;36.30;;;;;;6203138;28;20253;-66
2022/09/07 08:59:43;;;;;;;8.15;7.65;;;46.00;34.50;;;;;;6202575;28;20240;-67
2022/09/07 09:02:46;;;;;;;7.78;7.18;;;47.80;32.10;;;;;;6202867;28;20233;-67
2022/09/07 09:06:17;;;;;;;7.10;6.47;;;49.00;30.30;;;;;;6202375;28;20237;-67
2022/09/07 09:09:32;;;;;;;5.40;5.00;;;49.80;29.40;;;;;;6202669;28;20619;-67
2022/09/07 09:12:54;;;;;;;6.05;5.75;;;50.20;28.40;;;;;;6202864;28;20236;-65
2022/09/07 09:16:04;;;;;;;6.78;6.38;;;50.20;28.10;;;;;;6197729;28;20243;-64
2022/09/07 09:19:28;;;;;;;6.63;6.13;;;51.10;27.40;;;;;;6182289;28;20233;-63
2022/09/07 09:22:31;;;;;;;6.28;5.97;;;52.00;26.80;;;;;;6202056;28;20677;-63
2022/09/07 09:25:37;;;;;;;5.95;5.55;;;52.50;26.20;;;;;;6202441;28;20240;-63
2022/09/07 09:28:40;;;;;;;6.50;6.20;;;52.90;25.80;;;;;;6201681;28;20241;-63
2022/09/07 09:31:45;;;;;;;8.30;7.60;;;53.20;25.50;;;;;;6201684;28;20282;-62
2022/09/07 09:35:01;;;;;;;7.80;7.30;;;53.10;25.10;;;;;;6201455;28;20548;-62
2022/09/07 09:38:04;;;;;;;8.63;8.13;;;52.90;25.20;;;;;;6198225;28;20395;-63
2022/09/07 09:41:10;;;;;;;7.95;7.45;;;50.00;26.70;;;;;;6198187;28;20224;-62
2022/09/07 09:44:15;;;;;;;8.30;7.80;;;49.80;27.70;;;;;;6200531;28;20676;-62
2022/09/07 09:47:31;;;;;;;7.65;7.15;;;50.20;27.30;;;;;;6201746;28;20300;-63
2022/09/07 09:50:39;;;;;;;8.60;7.95;;;49.90;27.80;;;;;;6201098;28;20240;-64
2022/09/07 09:54:06;;;;;;;9.43;8.73;;;49.50;27.70;;;;;;6201184;28;20227;-63
2022/09/07 09:57:14;;;;;;;9.50;8.90;;;48.90;28.30;;;;;;6201571;28;20257;-63
2022/09/07 10:00:19;;;;;;;8.50;7.95;;;48.10;28.90;;;;;;6201105;28;20241;-63
2022/09/07 10:03:34;;;;;;;8.27;7.78;;;46.50;29.80;;;;;;6177299;28;20661;-63
2022/09/07 10:07:03;;;;;;;8.70;8.02;;;44.80;32.00;;;;;;6176784;28;20290;-63
2022/09/07 10:10:15;;;;;;;8.80;8.30;;;43.40;34.20;;;;;;6191237;28;20291;-64
2022/09/07 10:13:21;;;;;;;11.30;10.60;;;42.30;35.10;;;;;;6199560;28;20225;-63
2022/09/07 10:16:37;;;;;;;9.82;9.02;;;40.10;37.90;;;;;;6205967;28;20240;-62
2022/09/07 10:19:43;;;;;;;10.30;9.40;;;36.50;44.40;;;;;;6199518;28;20281;-62
2022/09/07 10:22:56;;;;;;;10.13;9.43;;;35.80;46.30;;;;;;6201788;28;20287;-66
2022/09/07 10:26:19;;;;;;;10.77;10.00;;;35.30;47.70;;;;;;6202272;28;20588;-64
2022/09/07 10:29:29;;;;;;;10.20;9.35;;;34.50;49.60;;;;;;6180288;28;20238;-65
2022/09/07 10:32:49;;;;;;;9.35;8.68;;;33.80;51.40;;;;;;6178224;28;20245;-63
2022/09/07 10:35:59;;;;;;;10.70;9.88;;;33.10;53.00;;;;;;6197572;28;20610;-63
2022/09/07 10:39:06;;;;;;;12.20;10.45;;;33.20;53.50;;;;;;6201554;28;20229;-63
2022/09/07 10:42:27;;;;;;;9.75;8.93;;;33.20;53.40;;;;;;6201031;28;20291;-64
2022/09/07 10:45:41;;;;;;;10.43;9.70;;;32.60;54.90;;;;;;6201089;28;20232;-67
2022/09/07 10:48:51;;;;;;;11.27;10.27;;;32.20;56.80;;;;;;6201060;28;20276;-64
2022/09/07 10:52:01;;;;;;;9.77;9.18;;;31.70;58.40;;;;;;6201957;28;20241;-65
2022/09/07 10:55:14;;;;;;;10.18;9.38;;;31.70;58.10;;;;;;6205935;28;20233;-63
2022/09/07 10:58:35;;;;;;;11.02;10.27;;;31.70;58.60;;;;;;6206034;28;20307;-63
2022/09/07 11:02:07;;;;;;;10.60;9.77;;;31.80;58.90;;;;;;6205092;28;20237;-62
2022/09/07 11:05:18;;;;;;;9.88;9.27;;;31.60;59.60;;;;;;6205534;28;20295;-62
2022/09/07 11:08:33;;;;;;;9.88;9.23;;;31.80;59.70;;;;;;6205605;28;20287;-62
2022/09/07 11:12:02;;;;;;;11.68;10.88;;;31.50;60.60;;;;;;6204978;28;20233;-65
2022/09/07 11:15:18;;;;;;;12.70;11.80;;;31.20;61.20;;;;;;6205271;28;20243;-65
2022/09/07 11:18:26;;;;;;;11.40;10.35;;;31.20;62.30;;;;;;6205130;28;20237;-63
2022/09/07 11:21:34;;;;;;;9.70;9.10;;;31.30;62.50;;;;;;6205245;28;20256;-63
2022/09/07 11:25:06;;;;;;;11.02;10.07;;;31.30;62.00;;;;;;6195713;28;20319;-63
2022/09/07 11:28:35;;;;;;;10.23;9.52;;;30.70;64.40;;;;;;6204635;28;20327;-65
2022/09/07 11:31:44;;;;;;;10.95;10.25;;;30.80;64.90;;;;;;6204709;28;20237;-63
2022/09/07 11:34:53;;;;;;;10.18;9.57;;;31.00;65.10;;;;;;6205007;28;20240;-63
2022/09/07 11:38:02;;;;;;;10.23;9.63;;;30.90;65.40;;;;;;6204858;28;20313;-63
2022/09/07 11:41:20;;;;;;;10.43;9.77;;;31.00;65.10;;;;;;6203639;28;20681;-64
2022/09/07 11:44:29;;;;;;;10.63;9.77;;;31.10;65.80;;;;;;6204574;28;20234;-64
2022/09/07 11:47:39;;;;;;;10.07;9.38;;;31.30;65.20;;;;;;6204516;28;20237;-63
2022/09/07 11:50:48;;;;;;;11.30;10.50;;;30.90;65.60;;;;;;6204438;28;20372;-63
2022/09/07 11:53:54;;;;;;;11.05;10.32;;;30.90;66.60;;;;;;6202347;28;20745;-63
2022/09/07 11:57:09;;;;;;;10.43;9.73;;;30.90;66.70;;;;;;6202899;28;20244;-64
2022/09/07 12:00:18;;;;;;;11.88;11.00;;;31.00;65.80;;;;;;6202507;28;20237;-64
2022/09/07 12:03:56;;;;;;;11.90;11.10;;;30.80;66.00;;;;;;6202043;28;20233;-63
2022/09/07 12:07:26;;;;;;;11.48;10.68;;;30.80;66.40;;;;;;6200820;28;20680;-63
2022/09/07 12:10:39;;;;;;;12.18;11.38;;;31.00;67.40;;;;;;6203404;28;20613;-63
2022/09/07 12:14:07;;;;;;;11.68;10.80;;;31.10;66.80;;;;;;6204033;28;20229;-63
2022/09/07 12:17:30;;;;;;;10.77;10.07;;;30.90;67.00;;;;;;6204008;28;20244;-64
2022/09/07 12:20:40;;;;;;;10.75;9.77;;;30.70;67.70;;;;;;6203676;28;20237;-64
2022/09/07 12:23:47;;;;;;;11.32;10.43;;;30.60;68.40;;;;;;6203395;28;20234;-63
2022/09/07 12:26:51;;;;;;;10.57;9.85;;;30.90;68.10;;;;;;6203197;28;20293;-63
2022/09/07 12:30:24;;;;;;;12.55;11.52;;;31.10;67.20;;;;;;6202926;28;20233;-63
2022/09/07 12:33:32;;;;;;;11.10;10.30;;;31.40;66.90;;;;;;6200256;28;20236;-64
2022/09/07 12:36:49;;;;;;;10.25;9.45;;;31.80;65.10;;;;;;6203735;28;20597;-63
2022/09/07 12:40:31;;;;;;;10.95;10.15;;;31.80;64.20;;;;;;6203087;28;20233;-64
2022/09/07 12:44:04;;;;;;;10.10;9.32;;;31.60;64.60;;;;;;6203011;28;20291;-63
2022/09/07 12:47:26;;;;;;;11.60;10.80;;;31.80;64.00;;;;;;6203162;28;20240;-63
2022/09/07 12:50:34;;;;;;;9.73;9.02;;;31.90;64.60;;;;;;6202566;28;20351;-63
2022/09/07 12:53:49;;;;;;;10.70;9.70;;;32.10;63.70;;;;;;6201976;28;20278;-64
2022/09/07 12:57:01;;;;;;;10.70;9.90;;;32.20;62.50;;;;;;6203114;28;20233;-64
2022/09/07 13:00:35;;;;;;;10.43;9.73;;;32.30;62.50;;;;;;6202352;28;20225;-63
2022/09/07 13:04:08;;;;;;;12.00;11.00;;;32.30;62.00;;;;;;6202587;28;20546;-63
2022/09/07 13:07:40;;;;;;;10.93;10.13;;;32.50;61.60;;;;;;6202785;28;20700;-64
2022/09/07 13:10:45;;;;;;;10.05;9.32;;;32.10;61.90;;;;;;6202473;28;20252;-63
2022/09/07 13:13:56;;;;;;;10.57;9.77;;;32.10;62.60;;;;;;6202587;28;20228;-63
2022/09/07 13:17:54;;;;;;;10.75;10.05;;;31.70;62.80;;;;;;6201787;28;20594;-64
2022/09/07 13:21:30;;;;;;;10.40;9.68;;;31.00;65.50;;;;;;6128188;29;20235;-63
2022/09/07 13:24:46;;;;;;;10.60;10.00;;;30.60;66.70;;;;;;6141898;28;20668;-63
2022/09/07 13:27:56;;;;;;;12.02;11.23;;;30.50;67.20;;;;;;6190011;28;21664;-64
2022/09/07 13:31:15;;;;;;;11.80;10.90;;;30.60;67.50;;;;;;6173874;28;20240;-64
2022/09/07 13:34:49;;;;;;;10.85;10.15;;;30.50;69.10;;;;;;6185829;28;20244;-64
2022/09/07 13:37:55;;;;;;;11.30;10.50;;;30.00;70.90;;;;;;6179940;28;20233;-64
2022/09/07 13:41:06;;;;;;;11.03;10.23;;;29.40;72.50;;;;;;6201687;28;20260;-64
2022/09/07 13:44:20;;;;;;;12.23;11.23;;;28.90;74.40;;;;;;6202069;28;20295;-63
2022/09/07 13:47:41;;;;;;;12.37;11.40;;;28.50;76.60;;;;;;6199712;28;20240;-62
2022/09/07 13:50:52;;;;;;;11.97;11.13;;;28.50;77.30;;;;;;6201164;28;20591;-62
2022/09/07 13:54:02;;;;;;;11.60;10.80;;;28.60;77.10;;;;;;6195117;28;20229;-62
2022/09/07 13:57:17;;;;;;;11.47;10.67;;;28.70;76.80;;;;;;6200772;28;20228;-62
2022/09/07 14:00:20;;;;;;;11.17;10.33;;;28.60;77.00;;;;;;6189548;28;20232;-62
2022/09/07 14:03:26;;;;;;;11.40;10.60;;;28.50;78.00;;;;;;6179557;28;20546;-62
2022/09/07 14:06:34;;;;;;;10.97;10.27;;;28.40;79.10;;;;;;6201575;28;20237;-62
2022/09/07 14:09:37;;;;;;;11.60;10.80;;;28.40;79.90;;;;;;6201389;28;20576;-61
2022/09/07 14:12:47;;;;;;;11.50;10.60;;;28.30;81.00;;;;;;6201025;28;20287;-62
2022/09/07 14:15:50;;;;;;;10.40;9.50;;;28.30;81.40;;;;;;6200755;28;20260;-62
2022/09/07 14:18:54;;;;;;;8.53;7.63;;;28.10;82.20;;;;;;6201046;28;20239;-62
2022/09/07 14:21:59;;;;;;;6.03;5.53;;;27.60;77.40;;;;;;6200615;28;20607;-62
2022/09/07 14:25:07;;;;;;;6.03;5.50;;;26.90;76.80;;;;;;6201077;28;20225;-62
2022/09/07 14:28:35;;;;;;;4.07;3.77;;;26.30;78.80;;;;;;6200584;28;20323;-61
2022/09/07 14:31:38;;;;;;;3.50;3.20;;;26.00;78.00;;;;;;6200748;28;20237;-60
2022/09/07 14:34:43;;;;;;;4.43;3.07;;;25.80;78.30;;;;;;6189905;28;20749;-62
2022/09/07 14:37:47;;;;;;;3.47;2.33;;;25.50;81.30;;;;;;6176977;28;20244;-60
2022/09/07 14:40:51;;;;;;;3.30;2.30;;;24.80;82.50;;;;;;6176807;28;20234;-60
2022/09/07 14:43:58;;;;;;;2.03;1.77;;;24.20;82.90;;;;;;6176664;28;20289;-60
2022/09/07 14:47:09;;;;;;;1.80;1.40;;;23.80;83.90;;;;;;6180465;28;20218;-60
2022/09/07 14:50:18;;;;;;;2.93;1.63;;;23.30;85.60;;;;;;6184227;28;20225;-60
2022/09/07 14:53:22;;;;;;;2.60;1.80;;;23.00;88.60;;;;;;6200119;28;20352;-61
2022/09/07 14:56:41;;;;;;;2.43;1.67;;;23.00;90.50;;;;;;6200436;28;20248;-61
2022/09/07 14:59:47;;;;;;;2.73;1.97;;;23.00;91.80;;;;;;6200229;28;20238;-61
2022/09/07 15:02:50;;;;;;;2.07;1.70;;;23.00;92.80;;;;;;6200425;28;20237;-61
2022/09/07 15:05:54;;;;;;;2.33;1.93;;;23.10;93.40;;;;;;6200627;28;20288;-61
2022/09/07 15:09:04;;;;;;;4.53;2.07;;;23.10;93.70;;;;;;6200603;28;20670;-66
2022/09/07 15:12:18;;;;;;;2.40;2.20;;;23.10;94.20;;;;;;6200882;28;20261;-65
2022/09/07 15:15:34;;;;;;;4.43;2.70;;;23.00;94.70;;;;;;6200271;28;20218;-63
2022/09/07 15:18:53;;;;;;;3.93;2.60;;;23.10;95.30;;;;;;6200520;28;20268;-64
2022/09/07 15:21:56;;;;;;;14.57;3.30;;;23.10;95.80;;;;;;6200342;28;20236;-65
2022/09/07 15:24:59;;;;;;;3.53;2.63;;;23.20;95.70;;;;;;6200662;28;20241;-62
2022/09/07 15:28:03;;;;;;;2.70;2.47;;;23.30;95.40;;;;;;6200625;28;20249;-62
2022/09/07 15:31:09;;;;;;;2.90;2.60;;;23.60;95.00;;;;;;6200296;28;20684;-61
2022/09/07 15:34:32;;;;;;;2.80;2.60;;;23.80;94.50;;;;;;6200187;28;20316;-62
2022/09/07 15:37:36;;;;;;;2.40;2.20;;;23.80;94.30;;;;;;6200540;28;20230;-66
2022/09/07 15:40:59;;;;;;;2.77;2.57;;;23.90;94.30;;;;;;6199388;28;20234;-65
2022/09/07 15:44:22;;;;;;;3.33;3.10;;;23.90;94.40;;;;;;6204662;28;20280;-63
2022/09/07 15:47:31;;;;;;;6.17;3.43;;;23.90;95.50;;;;;;6204539;28;20276;-62
2022/09/07 15:51:02;;;;;;;6.57;3.87;;;23.90;95.90;;;;;;6203202;28;21430;-62
2022/09/07 15:54:05;;;;;;;3.80;3.40;;;23.80;96.60;;;;;;6204179;28;20226;-61
2022/09/07 15:57:14;;;;;;;4.13;3.73;;;23.80;96.90;;;;;;6203646;28;20240;-62
2022/09/07 16:00:38;;;;;;;3.57;3.27;;;23.60;97.20;;;;;;6202684;28;20360;-61
2022/09/07 16:03:42;;;;;;;3.97;3.57;;;23.50;98.30;;;;;;6203129;28;20911;-61
2022/09/07 16:06:50;;;;;;;4.50;3.40;;;23.40;98.70;;;;;;6202711;28;20187;-61
2022/09/07 16:09:53;;;;;;;5.30;3.90;;;23.40;99.30;;;;;;6203056;28;20236;-62
2022/09/07 16:12:58;;;;;;;5.00;4.47;;;23.40;99.70;;;;;;6204358;28;20608;-62
2022/09/07 16:16:06;;;;;;;4.63;4.23;;;23.40;99.90;;;;;;6204675;28;20360;-61